Time;durP1;ratioP1;P1;durP2;ratioP2;P2;SDS_P1;SDS_P2;PMS_P1;PMS_P2;Temp;Humidity;BMP_temperature;BMP_pressure;BME280_temperature;BME280_humidity;BME280_pressure;Samples;Min_cycle;Max_cycle;Signal;HPM_P1;HPM_P2
2022/10/26 00:00:50;;;;;;;;;21.50;20.00;;;;;18.56;57.92;98793.25;4966075;28;102688;-68
2022/10/26 00:03:17;;;;;;;;;23.75;22.25;;;;;18.56;57.74;98793.25;4962472;28;102622;-67
2022/10/26 00:05:44;;;;;;;;;22.25;20.75;;;;;18.55;57.43;98788.88;4954022;28;104062;-67
2022/10/26 00:08:11;;;;;;;;;23.50;23.25;;;;;18.54;57.68;98792.69;4978621;28;102414;-67
2022/10/26 00:10:38;;;;;;;;;23.00;21.75;;;;;18.54;57.31;98788.03;4961999;28;103784;-67
2022/10/26 00:13:07;;;;;;;;;25.75;22.50;;;;;18.53;57.32;98789.09;4965661;28;102547;-68
2022/10/26 00:15:34;;;;;;;;;22.00;20.25;;;;;18.53;57.55;98793.75;4962229;28;109505;-67
2022/10/26 00:18:01;;;;;;;;;26.75;24.75;;;;;18.52;57.18;98797.53;4946876;28;102762;-67
2022/10/26 00:20:28;;;;;;;;;21.00;18.75;;;;;18.48;57.18;98794.44;4961627;28;102491;-67
2022/10/26 00:22:55;;;;;;;;;24.00;21.25;;;;;18.48;57.29;98799.09;4964522;28;102439;-67
2022/10/26 00:25:22;;;;;;;;;24.50;23.75;;;;;18.48;57.50;98788.97;4945241;28;104336;-67
2022/10/26 00:27:49;;;;;;;;;27.25;24.25;;;;;18.47;57.68;98798.25;4965581;28;102404;-67
2022/10/26 00:30:17;;;;;;;;;21.00;20.25;;;;;18.48;57.72;98796.34;4969252;28;102510;-68
2022/10/26 00:32:44;;;;;;;;;20.00;18.00;;;;;18.47;57.51;98790.03;4969972;28;102551;-68
2022/10/26 00:35:11;;;;;;;;;21.50;21.50;;;;;18.47;57.60;98790.03;4972175;28;104116;-67
2022/10/26 00:37:54;;;;;;;;;22.50;21.50;;;;;18.47;57.82;98794.69;4954734;28;104666;-67
2022/10/26 00:40:21;;;;;;;;;22.25;22.00;;;;;18.46;57.18;98793.84;4965978;28;102619;-67
2022/10/26 00:42:48;;;;;;;;;22.75;19.00;;;;;18.45;57.33;98797.69;4957049;28;102171;-68
2022/10/26 00:45:20;;;;;;;;;22.50;22.00;;;;;18.45;57.28;98807.81;4955868;28;104639;-67
2022/10/26 00:47:57;;;;;;;;;27.00;24.50;;;;;18.45;57.69;98794.13;4970388;28;102592;-68
2022/10/26 00:50:45;;;;;;;;;21.50;20.25;;;;;18.43;57.53;98788.88;4945172;28;109193;-67
2022/10/26 00:53:12;;;;;;;;;22.75;20.00;;;;;18.43;57.12;98796.25;4961314;28;103550;-67
2022/10/26 00:55:46;;;;;;;;;21.25;20.50;;;;;18.41;57.39;98793.78;4963180;28;104230;-67
2022/10/26 00:58:13;;;;;;;;;22.00;20.75;;;;;18.39;57.49;98787.72;4944944;28;104084;-68
2022/10/26 01:00:40;;;;;;;;;23.25;22.00;;;;;18.37;57.44;98787.13;4964903;28;102776;-67
2022/10/26 01:03:08;;;;;;;;;21.00;20.00;;;;;18.35;57.60;98777.50;4961363;28;102281;-67
2022/10/26 01:05:40;;;;;;;;;21.75;19.75;;;;;18.35;57.41;98783.81;4918515;28;108992;-68
2022/10/26 01:08:17;;;;;;;;;22.00;20.50;;;;;18.36;57.23;98774.53;4961335;28;103841;-68
2022/10/26 01:11:01;;;;;;;;;21.75;20.00;;;;;18.36;57.05;98780.00;4927446;28;103829;-68
2022/10/26 01:13:44;;;;;;;;;24.50;22.50;;;;;18.35;57.07;98772.03;4950170;28;102685;-68
2022/10/26 01:16:46;;;;;;;;;22.00;20.50;;;;;18.35;57.51;98783.81;4933097;28;107285;-67
2022/10/26 01:19:35;;;;;;;;;19.00;18.25;;;;;18.35;57.53;98783.81;4947868;28;102273;-68
2022/10/26 01:22:33;;;;;;;;;23.25;21.00;;;;;18.33;57.66;98790.63;4953651;28;102603;-67
2022/10/26 01:25:36;;;;;;;;;21.75;18.75;;;;;18.32;57.81;98788.97;4947067;28;103588;-67
2022/10/26 01:28:11;;;;;;;;;23.00;21.00;;;;;18.32;57.90;98784.31;4970610;28;107873;-68
2022/10/26 01:30:39;;;;;;;;;21.25;20.00;;;;;18.29;57.70;98785.63;4959228;28;102068;-67
2022/10/26 01:33:09;;;;;;;;;21.50;21.00;;;;;18.29;57.00;98784.78;4926338;28;102534;-68
2022/10/26 01:35:42;;;;;;;;;22.25;20.00;;;;;18.28;57.00;98785.91;4945482;28;102250;-67
2022/10/26 01:38:17;;;;;;;;;23.25;21.25;;;;;18.27;57.16;98781.50;4946598;28;108486;-68
2022/10/26 01:40:55;;;;;;;;;18.75;17.25;;;;;18.24;57.35;98790.16;4944602;28;102245;-68
2022/10/26 01:43:22;;;;;;;;;25.75;22.25;;;;;18.23;57.33;98791.28;4945023;28;102401;-67
2022/10/26 01:45:49;;;;;;;;;21.75;19.00;;;;;18.22;57.67;98787.69;4939926;28;103196;-67
2022/10/26 01:48:17;;;;;;;;;21.25;19.00;;;;;18.22;57.17;98793.19;4955761;28;104214;-67
2022/10/26 01:50:45;;;;;;;;;24.00;21.25;;;;;18.22;57.49;98789.59;4957936;28;102269;-67
2022/10/26 01:53:15;;;;;;;;;20.00;20.00;;;;;18.22;57.81;98789.59;4940199;28;102594;-67
2022/10/26 01:55:49;;;;;;;;;22.75;21.50;;;;;18.20;57.69;98787.09;4942593;28;103578;-67
2022/10/26 01:58:44;;;;;;;;;22.50;18.75;;;;;18.21;57.44;98793.41;4945925;28;104102;-67
2022/10/26 02:01:41;;;;;;;;;22.25;20.00;;;;;18.20;57.32;98798.06;4944128;28;102477;-67
2022/10/26 02:04:24;;;;;;;;;20.00;18.00;;;;;18.20;57.14;98792.56;4972364;28;102539;-67
2022/10/26 02:07:08;;;;;;;;;18.00;18.00;;;;;18.19;57.39;98790.09;4970000;28;102770;-67
2022/10/26 02:09:40;;;;;;;;;25.25;20.50;;;;;18.19;57.51;98793.66;4965076;28;109635;-68
2022/10/26 02:12:44;;;;;;;;;20.75;20.25;;;;;18.19;57.03;98795.56;4950503;28;102365;-67
2022/10/26 02:15:22;;;;;;;;;16.75;16.75;;;;;18.18;57.53;98792.00;4882929;28;103795;-66
2022/10/26 02:18:17;;;;;;;;;17.50;16.75;;;;;18.18;57.12;98796.66;4943729;28;103197;-67
2022/10/26 02:20:47;;;;;;;;;21.00;19.00;;;;;18.15;57.19;98795.22;4964944;28;109355;-67
2022/10/26 02:23:14;;;;;;;;;22.00;20.00;;;;;18.14;57.29;98792.75;4953654;28;102213;-67
2022/10/26 02:25:45;;;;;;;;;20.75;18.75;;;;;18.13;57.44;98796.53;4961752;28;103201;-67
2022/10/26 02:28:18;;;;;;;;;20.00;19.00;;;;;18.14;57.55;98800.94;4937376;28;102693;-67
2022/10/26 02:30:45;;;;;;;;;20.25;19.75;;;;;18.13;57.78;98802.03;4957741;28;104084;-67
2022/10/26 02:33:12;;;;;;;;;19.25;17.75;;;;;18.12;57.64;98792.97;4936159;28;102797;-67
2022/10/26 02:35:40;;;;;;;;;20.00;16.50;;;;;18.13;56.79;98797.38;4940225;28;103966;-67
2022/10/26 02:38:09;;;;;;;;;20.50;18.50;;;;;18.12;57.74;98792.16;4958141;28;102509;-67
2022/10/26 02:40:36;;;;;;;;;20.00;20.00;;;;;18.12;57.47;98789.41;4955882;28;108753;-67
2022/10/26 02:43:10;;;;;;;;;21.50;19.50;;;;;18.11;58.03;98801.41;4937830;28;102882;-67
2022/10/26 02:45:41;;;;;;;;;23.00;20.00;;;;;18.11;57.66;98804.16;4944259;28;102532;-67
2022/10/26 02:48:08;;;;;;;;;21.50;20.25;;;;;18.11;57.46;98804.16;4947493;28;102373;-67
2022/10/26 02:50:42;;;;;;;;;18.50;16.75;;;;;18.11;56.96;98798.69;4959592;28;108955;-67
2022/10/26 02:53:29;;;;;;;;;17.50;16.00;;;;;18.10;57.32;98786.09;4959671;28;103473;-67
2022/10/26 02:55:56;;;;;;;;;19.25;18.00;;;;;18.10;57.51;98792.38;4944621;28;102180;-67
2022/10/26 02:58:28;;;;;;;;;20.25;19.25;;;;;18.10;56.92;98803.31;4947551;28;102443;-67
2022/10/26 03:00:54;;;;;;;;;18.00;18.00;;;;;18.10;57.16;98797.03;4960345;28;104038;-68
2022/10/26 03:03:21;;;;;;;;;20.75;19.25;;;;;18.07;57.00;98797.50;4942985;28;102371;-67
2022/10/26 03:05:48;;;;;;;;;22.00;19.25;;;;;18.06;57.50;98801.31;4958924;28;102354;-68
2022/10/26 03:08:16;;;;;;;;;17.00;15.50;;;;;18.07;57.17;98805.72;4950089;28;102477;-67
2022/10/26 03:10:44;;;;;;;;;18.50;18.25;;;;;18.07;56.95;98805.72;4947533;28;104700;-67
2022/10/26 03:13:11;;;;;;;;;20.50;18.00;;;;;18.07;57.58;98794.78;4945660;28;102260;-67
2022/10/26 03:15:38;;;;;;;;;21.00;17.50;;;;;18.07;57.36;98803.00;4959057;28;102818;-67
2022/10/26 03:18:05;;;;;;;;;19.50;18.75;;;;;18.08;57.38;98810.13;4952305;28;102764;-67
2022/10/26 03:20:32;;;;;;;;;20.00;19.50;;;;;18.05;57.07;98803.25;4952617;28;104055;-67
2022/10/26 03:22:59;;;;;;;;;18.00;17.00;;;;;18.05;57.32;98802.41;4964307;28;102566;-67
2022/10/26 03:25:26;;;;;;;;;18.00;14.00;;;;;18.06;57.15;98815.84;4963024;28;102538;-67
2022/10/26 03:28:00;;;;;;;;;18.75;17.00;;;;;18.06;57.30;98804.88;4953084;28;102491;-67
2022/10/26 03:30:27;;;;;;;;;20.50;17.25;;;;;18.07;57.78;98798.34;4948381;28;103683;-68
2022/10/26 03:32:54;;;;;;;;;12.50;12.50;;;;;18.06;57.02;98807.63;4964841;28;102576;-67
2022/10/26 03:35:21;;;;;;;;;15.75;14.75;;;;;18.06;56.99;98806.78;4966908;28;102583;-67
2022/10/26 03:37:48;;;;;;;;;15.00;14.50;;;;;18.06;56.97;98818.56;4965420;28;102318;-68
2022/10/26 03:40:16;;;;;;;;;1.00;1.00;;;;;18.05;57.06;98805.16;4947903;28;103470;-67
2022/10/26 03:42:43;;;;;;;;;16.75;16.75;;;;;18.04;57.09;98808.97;4966915;28;102563;-67
2022/10/26 03:45:10;;;;;;;;;17.25;16.00;;;;;18.02;56.97;98811.94;4977842;28;102321;-67
2022/10/26 03:47:44;;;;;;;;;21.00;18.50;;;;;18.01;57.23;98809.47;4963701;28;102555;-67
2022/10/26 03:50:14;;;;;;;;;23.00;18.75;;;;;18.02;56.76;98811.94;4960556;28;109556;-67
2022/10/26 03:52:41;;;;;;;;;20.50;17.00;;;;;18.03;57.08;98820.97;4973744;28;102334;-67
2022/10/26 03:55:09;;;;;;;;;18.50;17.25;;;;;18.03;56.60;98818.25;4962625;28;103742;-67
2022/10/26 03:57:40;;;;;;;;;17.25;15.00;;;;;18.03;56.75;98819.06;4968528;28;102384;-67
2022/10/26 04:00:09;;;;;;;;;23.00;18.25;;;;;18.02;57.33;98808.34;4946552;28;109675;-67
2022/10/26 04:02:36;;;;;;;;;16.75;15.75;;;;;18.01;56.90;98814.94;4966169;28;103051;-67
2022/10/26 04:05:03;;;;;;;;;18.50;16.50;;;;;18.00;57.22;98814.09;4970580;28;102308;-67
2022/10/26 04:07:30;;;;;;;;;20.50;19.00;;;;;18.00;57.52;98814.09;4951783;28;102291;-67
2022/10/26 04:09:57;;;;;;;;;19.00;17.00;;;;;18.01;57.11;98818.47;4964622;28;102286;-67
2022/10/26 04:12:24;;;;;;;;;15.50;15.00;;;;;18.02;57.13;98817.41;4961023;28;103678;-67
2022/10/26 04:14:51;;;;;;;;;16.50;16.50;;;;;18.05;57.11;98813.38;4960797;28;103709;-67
2022/10/26 04:17:18;;;;;;;;;18.75;16.75;;;;;18.06;57.40;98815.00;4961964;28;102846;-67
2022/10/26 04:19:46;;;;;;;;;17.00;16.50;;;;;18.06;57.25;98812.25;4961867;28;104005;-67
2022/10/26 04:22:13;;;;;;;;;17.50;16.75;;;;;18.08;56.85;98818.34;4943348;28;102539;-67
2022/10/26 04:24:40;;;;;;;;;16.25;15.50;;;;;18.05;56.77;98810.63;4960415;28;102998;-67
2022/10/26 04:27:07;;;;;;;;;16.50;15.75;;;;;18.02;56.94;98825.59;4960003;28;104560;-67
2022/10/26 04:29:34;;;;;;;;;13.25;11.75;;;;;17.99;57.18;98822.53;4964283;28;104052;-67
2022/10/26 04:32:01;;;;;;;;;19.00;17.25;;;;;17.99;57.02;98822.53;4943040;28;102512;-68
2022/10/26 04:34:28;;;;;;;;;16.00;14.50;;;;;17.99;56.74;98817.06;4959407;28;104055;-68
2022/10/26 04:36:55;;;;;;;;;16.00;15.00;;;;;17.98;56.84;98829.06;4963277;28;102492;-67
2022/10/26 04:39:22;;;;;;;;;17.00;14.00;;;;;17.97;56.51;98830.13;4971502;28;104218;-67
2022/10/26 04:41:49;;;;;;;;;14.75;14.75;;;;;17.96;56.63;98820.28;4963872;28;102335;-67
2022/10/26 04:44:16;;;;;;;;;16.25;16.00;;;;;17.96;56.52;98828.50;4962051;28;107674;-67
2022/10/26 04:46:43;;;;;;;;;17.75;15.50;;;;;17.96;57.22;98825.78;4970330;28;102547;-67
2022/10/26 04:49:11;;;;;;;;;16.25;15.50;;;;;17.94;57.46;98830.63;4964025;28;104070;-67
2022/10/26 04:51:38;;;;;;;;;16.50;15.00;;;;;17.93;56.84;98834.44;4960994;28;103008;-67
2022/10/26 04:54:05;;;;;;;;;17.50;17.50;;;;;17.93;56.77;98834.44;4965945;28;102479;-67
2022/10/26 04:56:32;;;;;;;;;16.00;14.25;;;;;17.93;57.34;98826.22;4969357;28;102672;-67
2022/10/26 04:59:00;;;;;;;;;13.25;13.00;;;;;17.93;56.92;98823.50;4945171;28;104265;-67
2022/10/26 05:01:27;;;;;;;;;16.50;14.00;;;;;17.93;56.93;98823.50;4969782;28;102406;-67
2022/10/26 05:03:54;;;;;;;;;16.75;15.75;;;;;17.88;56.71;98821.50;4967820;28;102391;-67
2022/10/26 05:06:21;;;;;;;;;17.75;15.50;;;;;17.91;57.23;98828.41;4963702;28;102132;-67
2022/10/26 05:08:48;;;;;;;;;14.25;14.00;;;;;17.91;57.47;98831.13;4962427;28;104371;-67
2022/10/26 05:11:15;;;;;;;;;16.25;15.25;;;;;17.90;57.47;98829.47;4961266;28;103667;-67
2022/10/26 05:13:42;;;;;;;;;17.25;15.00;;;;;17.90;57.46;98824.00;4963938;28;102319;-67
2022/10/26 05:16:09;;;;;;;;;14.00;14.00;;;;;17.90;57.21;98829.47;4961082;28;102699;-67
2022/10/26 05:18:36;;;;;;;;;17.75;15.25;;;;;17.90;56.91;98833.03;4928374;28;104253;-67
2022/10/26 05:21:03;;;;;;;;;16.50;15.75;;;;;17.91;56.32;98844.81;4962653;28;102289;-67
2022/10/26 05:23:30;;;;;;;;;15.00;13.00;;;;;17.90;57.18;98829.47;4929398;28;102716;-67
2022/10/26 05:25:58;;;;;;;;;13.75;13.00;;;;;17.89;56.53;98830.53;4946943;28;102430;-67
2022/10/26 05:28:25;;;;;;;;;14.25;14.00;;;;;17.89;57.16;98833.25;4945073;28;104255;-67
2022/10/26 05:30:52;;;;;;;;;17.00;14.50;;;;;17.89;57.46;98830.53;4945661;28;102358;-68
2022/10/26 05:33:19;;;;;;;;;16.25;14.75;;;;;17.88;56.92;98834.38;4962531;28;102321;-67
2022/10/26 05:35:46;;;;;;;;;17.00;14.00;;;;;17.88;56.54;98828.91;4963397;28;102637;-67
2022/10/26 05:38:14;;;;;;;;;17.00;16.75;;;;;17.87;57.45;98830.78;4963058;28;104201;-68
2022/10/26 05:40:52;;;;;;;;;11.50;11.25;;;;;17.86;56.49;98829.13;4946666;28;102158;-67
2022/10/26 05:43:20;;;;;;;;;16.50;14.00;;;;;17.87;57.17;98838.16;4956115;28;103157;-67
2022/10/26 05:45:48;;;;;;;;;16.00;15.50;;;;;17.84;57.42;98840.28;4950078;28;102503;-67
2022/10/26 05:48:15;;;;;;;;;16.00;15.00;;;;;17.83;57.08;98841.38;4962025;28;104255;-67
2022/10/26 05:50:42;;;;;;;;;13.50;13.50;;;;;17.82;56.95;98838.88;4964140;28;102288;-67
2022/10/26 05:53:09;;;;;;;;;14.00;13.00;;;;;17.81;56.99;98843.53;4946735;28;102242;-67
2022/10/26 05:55:36;;;;;;;;;15.50;15.00;;;;;17.81;56.59;98849.00;4962795;28;102710;-67
2022/10/26 05:58:03;;;;;;;;;16.00;14.50;;;;;17.82;56.83;98847.94;4945809;28;104012;-67
2022/10/26 06:00:31;;;;;;;;;19.00;15.75;;;;;17.82;56.72;98850.66;4962203;28;103513;-68
2022/10/26 06:03:07;;;;;;;;;13.25;13.25;;;;;17.82;56.52;98845.19;4960997;28;102528;-67
2022/10/26 06:05:37;;;;;;;;;16.50;14.50;;;;;17.82;57.02;98850.66;4964485;28;102482;-67
2022/10/26 06:08:09;;;;;;;;;13.00;12.50;;;;;17.81;56.76;98842.69;4960941;28;104120;-67
2022/10/26 06:10:37;;;;;;;;;16.00;14.50;;;;;17.80;57.17;98849.22;4963611;28;102485;-67
2022/10/26 06:13:05;;;;;;;;;14.75;13.25;;;;;17.80;57.27;98857.44;4963721;28;102339;-68
2022/10/26 06:15:32;;;;;;;;;15.00;13.00;;;;;17.80;57.34;98854.69;4929157;28;102411;-67
2022/10/26 06:18:05;;;;;;;;;12.00;11.50;;;;;17.79;56.81;98862.06;4960728;28;103384;-67
2022/10/26 06:20:43;;;;;;;;;12.75;12.50;;;;;17.77;57.32;98864.22;4962999;28;102479;-67
2022/10/26 06:23:33;;;;;;;;;13.50;12.00;;;;;17.78;57.10;98860.44;4955266;28;102421;-67
2022/10/26 06:26:01;;;;;;;;;13.00;12.50;;;;;17.78;57.29;98865.91;4960108;28;102248;-67
2022/10/26 06:28:56;;;;;;;;;16.75;15.00;;;;;17.78;57.25;98867.81;4961413;28;104110;-67
2022/10/26 06:31:23;;;;;;;;;15.25;14.25;;;;;17.77;56.75;98874.34;4961079;28;102285;-67
2022/10/26 06:33:52;;;;;;;;;15.75;15.00;;;;;17.75;56.77;98876.47;4975737;28;102805;-67
2022/10/26 06:36:24;;;;;;;;;16.50;14.75;;;;;17.77;56.81;98875.19;4961804;28;102470;-67
2022/10/26 06:39:02;;;;;;;;;17.00;14.75;;;;;17.78;56.68;98881.47;4959758;28;104085;-67
2022/10/26 06:41:33;;;;;;;;;16.50;14.75;;;;;17.79;56.85;98888.59;4944292;28;103033;-67
2022/10/26 06:44:01;;;;;;;;;15.75;14.00;;;;;17.78;57.11;98887.78;4961172;28;102550;-68
2022/10/26 06:46:36;;;;;;;;;9.50;9.00;;;;;17.78;57.26;98882.31;4972235;28;102318;-68
2022/10/26 06:49:18;;;;;;;;;17.25;15.25;;;;;17.78;56.49;98885.06;4962145;28;104003;-67
2022/10/26 06:52:31;;;;;;;;;14.50;14.00;;;;;17.77;56.46;98886.13;4945380;28;102817;-67
2022/10/26 06:54:59;;;;;;;;;15.00;13.00;;;;;17.78;56.47;98885.06;4922908;28;103340;-67
2022/10/26 06:57:33;;;;;;;;;16.50;14.75;;;;;17.79;56.65;98883.97;4952306;28;102480;-67
2022/10/26 07:00:04;;;;;;;;;15.50;12.75;;;;;17.80;57.22;98888.38;4960562;28;104045;-67
2022/10/26 07:02:31;;;;;;;;;9.75;8.50;;;;;17.79;56.60;98883.97;4960916;28;102522;-67
2022/10/26 07:04:58;;;;;;;;;13.25;13.25;;;;;17.80;56.79;98891.09;4960694;28;102600;-67
2022/10/26 07:07:26;;;;;;;;;16.50;14.25;;;;;17.82;56.87;98894.44;4961883;28;102313;-69
2022/10/26 07:09:53;;;;;;;;;17.75;16.25;;;;;17.82;56.47;98897.16;4941835;28;104054;-67
2022/10/26 07:15:47;;;;;;;;;14.50;13.50;;;;;17.80;56.78;98903.94;4956582;28;102469;-68
2022/10/26 07:18:14;;;;;;;;;15.00;14.75;;;;;17.81;56.39;98905.59;4962397;28;102478;-67
2022/10/26 07:20:41;;;;;;;;;17.00;14.75;;;;;17.83;56.51;98914.41;4943662;28;104106;-68
2022/10/26 07:23:11;;;;;;;;;15.75;14.25;;;;;17.83;56.37;98917.16;4949030;28;102539;-68
2022/10/26 07:26:28;;;;;;;;;17.00;16.00;;;;;17.82;56.75;98910.84;4962513;28;102524;-68
2022/10/26 07:28:55;;;;;;;;;17.25;13.50;;;;;17.83;56.77;98917.97;4958954;28;102533;-68
2022/10/26 07:31:22;;;;;;;;;17.25;14.75;;;;;17.84;56.70;98925.09;4963225;28;104180;-67
2022/10/26 07:33:49;;;;;;;;;14.25;14.00;;;;;17.87;56.63;98914.75;4966082;28;102560;-68
2022/10/26 07:36:16;;;;;;;;;14.50;13.50;;;;;17.87;56.71;98915.59;4965061;28;102708;-68
2022/10/26 07:38:43;;;;;;;;;14.25;13.00;;;;;17.88;56.52;98921.91;4965629;28;102551;-68
2022/10/26 07:41:10;;;;;;;;;14.75;14.00;;;;;17.90;56.52;98922.47;4965127;28;108933;-67
2022/10/26 07:43:36;;;;;;;;;16.00;15.00;;;;;17.89;56.89;98927.13;4948192;28;102343;-68
2022/10/26 07:46:03;;;;;;;;;13.50;12.25;;;;;17.90;56.28;98927.97;4964967;28;102134;-68
2022/10/26 07:48:30;;;;;;;;;15.25;14.00;;;;;17.90;56.14;98927.97;4965927;28;102285;-68
2022/10/26 07:51:00;;;;;;;;;11.25;11.25;;;;;17.90;56.79;98919.75;4964424;28;104067;-67
2022/10/26 07:53:28;;;;;;;;;13.00;12.50;;;;;17.90;56.79;98917.00;4965107;28;103082;-67
2022/10/26 07:55:56;;;;;;;;;16.25;14.75;;;;;17.90;56.90;98917.00;4963575;28;102251;-67
2022/10/26 07:58:25;;;;;;;;;15.25;13.75;;;;;17.91;56.57;98918.69;4948714;28;102560;-67
2022/10/26 08:00:52;;;;;;;;;13.75;13.50;;;;;17.91;56.95;98925.00;4930489;28;104067;-68
2022/10/26 08:03:19;;;;;;;;;14.25;13.75;;;;;17.92;56.18;98918.41;4965022;28;102689;-67
2022/10/26 08:05:46;;;;;;;;;17.00;14.75;;;;;17.93;56.37;98922.81;4947940;28;102504;-68
2022/10/26 08:08:13;;;;;;;;;15.75;15.50;;;;;17.93;56.01;98916.53;4966344;28;105281;-68
2022/10/26 08:10:44;;;;;;;;;13.00;12.00;;;;;17.92;56.77;98912.94;4956848;28;109097;-68
2022/10/26 08:13:11;;;;;;;;;18.50;14.75;;;;;17.94;56.03;98919.03;4963681;28;102216;-68
2022/10/26 08:15:38;;;;;;;;;17.00;14.50;;;;;17.94;56.91;98915.44;4946508;28;102126;-68
2022/10/26 08:18:05;;;;;;;;;15.25;13.75;;;;;17.94;56.07;98919.03;4948554;28;102204;-68
2022/10/26 08:20:32;;;;;;;;;14.00;13.25;;;;;17.95;56.57;98925.34;4965103;28;104165;-68
2022/10/26 08:23:00;;;;;;;;;15.00;15.00;;;;;17.95;56.99;98914.38;4964016;28;102737;-68
2022/10/26 08:25:27;;;;;;;;;15.25;14.50;;;;;17.95;56.52;98919.84;4964112;28;102189;-68
2022/10/26 08:27:54;;;;;;;;;15.75;14.00;;;;;17.95;56.40;98914.38;4965601;28;102268;-67
2022/10/26 08:30:21;;;;;;;;;15.75;14.00;;;;;17.95;56.26;98919.84;4963949;28;104115;-68
2022/10/26 08:32:48;;;;;;;;;18.00;14.00;;;;;17.96;56.31;98916.06;4965491;28;103088;-68
2022/10/26 08:35:15;;;;;;;;;13.50;12.50;;;;;17.96;56.28;98916.91;4964539;28;102285;-68
2022/10/26 08:37:42;;;;;;;;;10.50;10.00;;;;;17.97;56.39;98924.00;4965278;28;102840;-68
2022/10/26 08:40:13;;;;;;;;;14.00;11.75;;;;;17.98;55.99;98916.63;4961477;28;104062;-68
2022/10/26 08:42:43;;;;;;;;;16.25;15.25;;;;;17.98;56.22;98916.63;4945240;28;102369;-68
2022/10/26 08:45:23;;;;;;;;;12.50;11.75;;;;;17.98;56.75;98913.91;4962143;28;102530;-67
2022/10/26 08:48:00;;;;;;;;;11.75;11.00;;;;;17.98;56.70;98911.16;4939680;28;108009;-68
2022/10/26 08:50:30;;;;;;;;;15.25;13.75;;;;;17.99;56.25;98921.03;4962314;28;104020;-68
2022/10/26 08:53:02;;;;;;;;;13.25;13.00;;;;;17.97;56.19;98913.06;4962584;28;104456;-68
2022/10/26 08:55:45;;;;;;;;;13.75;12.00;;;;;17.99;56.76;98915.56;4926225;28;102630;-68
2022/10/26 08:58:16;;;;;;;;;14.25;11.50;;;;;17.97;56.58;98907.59;4960786;28;102407;-67
2022/10/26 09:00:44;;;;;;;;;17.25;13.50;;;;;17.99;56.39;98910.09;4946177;28;108860;-68
2022/10/26 09:03:15;;;;;;;;;13.25;13.25;;;;;17.99;56.34;98912.84;4962575;28;102458;-68
2022/10/26 09:06:19;;;;;;;;;15.25;13.50;;;;;17.98;56.09;98914.72;4918952;28;102182;-68
2022/10/26 09:09:02;;;;;;;;;15.75;13.50;;;;;17.99;56.44;98915.56;4965426;28;102455;-68
2022/10/26 09:11:40;;;;;;;;;13.50;12.00;;;;;17.98;56.43;98905.69;4946263;28;108886;-68
2022/10/26 09:14:19;;;;;;;;;17.25;15.00;;;;;17.97;56.39;98913.06;4962451;28;108076;-68
2022/10/26 09:17:07;;;;;;;;;14.25;12.75;;;;;17.99;56.08;98912.84;4927150;28;102225;-68
2022/10/26 09:19:49;;;;;;;;;16.00;13.75;;;;;17.99;55.98;98915.56;4964205;28;102562;-68
2022/10/26 09:22:21;;;;;;;;;14.00;13.00;;;;;17.98;56.24;98912.00;4949926;28;108879;-68
2022/10/26 09:24:52;;;;;;;;;14.25;14.00;;;;;17.98;56.69;98909.25;4936410;28;102497;-67
2022/10/26 09:27:28;;;;;;;;;15.75;13.00;;;;;18.00;56.33;98922.72;4959047;28;102421;-67
2022/10/26 09:29:56;;;;;;;;;15.00;12.75;;;;;18.00;56.62;98923.53;4959772;28;102464;-68
2022/10/26 09:32:30;;;;;;;;;15.75;13.50;;;;;17.97;56.23;98918.53;4958870;28;104276;-68
2022/10/26 09:34:59;;;;;;;;;12.00;11.25;;;;;18.00;56.01;98923.53;4958727;28;102107;-68
2022/10/26 09:37:30;;;;;;;;;14.50;13.00;;;;;18.01;56.36;98927.13;4958170;28;102659;-68
2022/10/26 09:40:17;;;;;;;;;12.75;11.75;;;;;18.01;56.45;98916.16;4945013;28;102209;-68
2022/10/26 09:43:00;;;;;;;;;12.00;12.00;;;;;18.01;56.64;98924.38;4959068;28;109079;-68
2022/10/26 09:45:30;;;;;;;;;14.25;12.25;;;;;18.01;56.32;98932.59;4933813;28;103130;-68
2022/10/26 09:48:10;;;;;;;;;12.50;11.75;;;;;18.01;55.90;98933.41;4936200;28;102585;-68
2022/10/26 09:50:38;;;;;;;;;14.00;11.75;;;;;18.02;56.24;98931.50;4944010;28;102711;-68
2022/10/26 09:53:05;;;;;;;;;13.00;13.00;;;;;18.01;56.45;98932.59;4942603;28;104325;-68
2022/10/26 09:55:32;;;;;;;;;15.50;14.50;;;;;18.01;56.46;98924.38;4943345;28;102602;-68
2022/10/26 09:58:03;;;;;;;;;14.50;13.00;;;;;18.02;55.80;98923.28;4959262;28;102310;-67
2022/10/26 10:00:30;;;;;;;;;13.00;12.25;;;;;18.02;56.29;98923.28;4959595;28;103875;-68
2022/10/26 10:02:57;;;;;;;;;12.50;11.25;;;;;18.02;55.89;98926.03;4942721;28;104103;-68
2022/10/26 10:05:25;;;;;;;;;11.75;11.75;;;;;18.03;56.38;98933.16;4957441;28;102647;-68
2022/10/26 10:08:25;;;;;;;;;14.75;12.75;;;;;18.04;56.15;98926.63;4943183;28;102028;-68
2022/10/26 10:11:10;;;;;;;;;12.75;12.50;;;;;18.04;56.31;98923.88;4958819;28;102649;-67
2022/10/26 10:13:44;;;;;;;;;12.50;10.75;;;;;18.04;56.10;98918.41;4943042;28;104053;-68
2022/10/26 10:16:23;;;;;;;;;12.00;11.50;;;;;18.04;56.35;98924.72;4958492;28;102243;-68
2022/10/26 10:18:57;;;;;;;;;12.25;11.00;;;;;18.05;56.56;98931.88;4956636;28;102345;-68
2022/10/26 10:21:38;;;;;;;;;11.50;11.25;;;;;18.05;56.38;98925.56;4959213;28;102454;-68
2022/10/26 10:24:25;;;;;;;;;12.00;11.00;;;;;18.06;56.37;98922.56;4967738;28;104324;-68
2022/10/26 10:27:02;;;;;;;;;11.50;11.00;;;;;18.06;56.00;98928.03;4939372;28;102506;-67
2022/10/26 10:29:33;;;;;;;;;11.75;10.00;;;;;18.07;56.33;98923.41;4944449;28;102434;-68
2022/10/26 10:32:01;;;;;;;;;10.75;10.25;;;;;18.08;56.18;98925.06;4942891;28;102548;-68
2022/10/26 10:34:32;;;;;;;;;10.50;9.75;;;;;18.08;56.24;98919.59;4958553;28;104246;-68
2022/10/26 10:36:59;;;;;;;;;13.50;11.00;;;;;18.10;55.75;98922.94;4943106;28;102428;-68
2022/10/26 10:39:33;;;;;;;;;9.75;9.75;;;;;18.11;55.98;98922.66;4939217;28;102288;-68
2022/10/26 10:42:00;;;;;;;;;11.50;10.00;;;;;18.11;56.47;98925.41;4950575;28;102419;-68
2022/10/26 10:44:28;;;;;;;;;12.00;10.75;;;;;18.13;56.27;98919.69;4957319;28;104038;-68
2022/10/26 10:47:02;;;;;;;;;10.75;10.00;;;;;18.14;56.71;98921.38;4940873;28;102603;-68
2022/10/26 10:49:29;;;;;;;;;12.00;11.00;;;;;18.15;56.03;98920.28;4957185;28;102343;-68
2022/10/26 10:51:56;;;;;;;;;11.00;10.00;;;;;18.17;55.94;98920.88;4958601;28;102387;-68
2022/10/26 10:54:31;;;;;;;;;10.75;9.00;;;;;18.18;56.12;98917.91;4943403;28;104059;-68
2022/10/26 10:57:06;;;;;;;;;10.75;10.50;;;;;18.19;56.05;98924.22;4958825;28;102308;-68
2022/10/26 11:00:00;;;;;;;;;8.75;8.50;;;;;18.20;56.02;98914.91;4956235;28;104795;-68
2022/10/26 11:02:47;;;;;;;;;11.25;11.00;;;;;18.21;56.29;98914.69;4939943;28;102349;-68
2022/10/26 11:05:36;;;;;;;;;9.75;9.75;;;;;18.22;56.10;98915.50;4960772;28;109034;-68
2022/10/26 11:08:21;;;;;;;;;12.00;10.50;;;;;18.22;56.31;98916.34;4970585;28;102270;-68
2022/10/26 11:10:51;;;;;;;;;11.50;9.00;;;;;18.23;55.87;98915.28;4946429;28;102565;-68
2022/10/26 11:13:24;;;;;;;;;9.75;9.00;;;;;18.24;56.42;98916.09;4945609;28;104874;-68
2022/10/26 11:15:54;;;;;;;;;10.25;9.75;;;;;18.25;55.87;98915.84;4977288;28;108609;-68
2022/10/26 11:18:55;;;;;;;;;10.25;10.00;;;;;18.28;55.53;98914.56;4957363;28;102372;-68
2022/10/26 11:21:27;;;;;;;;;10.00;9.50;;;;;18.29;56.30;98921.66;4919098;28;102379;-68
2022/10/26 11:24:09;;;;;;;;;10.33;10.33;;;;;18.29;56.17;98925.25;4945942;28;102574;-68
2022/10/26 11:26:44;;;;;;;;;11.00;10.00;;;;;18.31;55.58;98924.19;4937283;28;104062;-68
2022/10/26 11:29:36;;;;;;;;;9.33;9.33;;;;;18.32;55.84;98923.94;4944464;28;102507;-68
2022/10/26 11:32:21;;;;;;;;;8.00;8.00;;;;;18.34;55.81;98923.69;4940120;28;102548;-68
2022/10/26 11:34:58;;;;;;;;;11.25;9.00;;;;;18.33;56.23;98928.31;4944583;28;103087;-67